createdAt,value
2023-03-02T00:01:24.375Z,102738.50
2023-03-02T00:03:51.205Z,102740.41
2023-03-02T00:06:18.222Z,102737.13
2023-03-02T00:08:45.996Z,102736.41
2023-03-02T00:11:15.693Z,102737.94
2023-03-02T00:13:43.455Z,102741.22
2023-03-02T00:16:10.101Z,102737.81
2023-03-02T00:18:36.612Z,102733.31
2023-03-02T00:21:03.225Z,102727.69
2023-03-02T00:23:29.877Z,102731.47
2023-03-02T00:25:56.399Z,102727.94
2023-03-02T00:28:22.847Z,102725.78
2023-03-02T00:30:49.297Z,102724.59
2023-03-02T00:33:15.784Z,102723.19
2023-03-02T00:35:42.460Z,102726.50
2023-03-02T00:38:09.284Z,102731.19
2023-03-02T00:40:36.495Z,102723.16
2023-03-02T00:43:03.101Z,102725.06
2023-03-02T00:45:29.960Z,102726.44
2023-03-02T00:47:56.481Z,102722.09
2023-03-02T00:50:23.071Z,102722.09
2023-03-02T00:52:49.592Z,102728.34
2023-03-02T00:55:16.195Z,102728.47
2023-03-02T00:57:42.721Z,102732.00
2023-03-02T01:00:09.700Z,102729.28
2023-03-02T01:02:39.062Z,102728.59
2023-03-02T01:05:05.969Z,102728.59
2023-03-02T01:07:33.255Z,102726.13
2023-03-02T01:09:59.699Z,102724.59
2023-03-02T01:12:26.276Z,102725.56
2023-03-02T01:14:52.809Z,102720.84
2023-03-02T01:17:22.198Z,102724.66
2023-03-02T01:19:48.749Z,102724.88
2023-03-02T01:22:15.276Z,102726.81
2023-03-02T01:24:41.822Z,102717.81
2023-03-02T01:27:08.476Z,102719.56
2023-03-02T01:29:34.983Z,102719.16
2023-03-02T01:32:02.427Z,102713.31
2023-03-02T01:34:29.096Z,102715.22
2023-03-02T01:36:56.051Z,102710.16
2023-03-02T01:39:22.769Z,102694.59
2023-03-02T01:41:51.459Z,102703.47
2023-03-02T01:44:36.247Z,102699.50
2023-03-02T01:47:05.105Z,102699.84
2023-03-02T01:49:37.636Z,102699.28
2023-03-02T01:52:04.364Z,102702.81
2023-03-02T01:54:30.984Z,102699.97
2023-03-02T01:57:01.990Z,102706.34
2023-03-02T01:59:31.554Z,102701.06
2023-03-02T02:02:01.893Z,102701.06
2023-03-02T02:04:30.422Z,102701.88
2023-03-02T02:07:02.217Z,102700.47
2023-03-02T02:09:31.997Z,102702.25
2023-03-02T02:11:58.632Z,102695.53
2023-03-02T02:14:25.548Z,102700.13
2023-03-02T02:16:52.583Z,102699.88
2023-03-02T02:19:42.305Z,102696.13
2023-03-02T02:22:10.758Z,102691.63
2023-03-02T02:24:49.626Z,102693.41
2023-03-02T02:27:16.218Z,102694.56
2023-03-02T02:29:47.661Z,102682.28
2023-03-02T02:32:23.559Z,102681.59
2023-03-02T02:35:14.554Z,102688.66
2023-03-02T02:37:46.531Z,102685.00
2023-03-02T02:40:18.590Z,102685.13
2023-03-02T02:42:49.798Z,102685.00
2023-03-02T02:45:22.390Z,102678.44
2023-03-02T02:47:50.281Z,102678.31
2023-03-02T02:50:20.711Z,102675.47
2023-03-02T02:52:53.915Z,102675.59
2023-03-02T02:55:23.299Z,102678.31
2023-03-02T02:57:53.551Z,102663.38
2023-03-02T03:00:22.248Z,102667.72
2023-03-02T03:02:54.082Z,102672.59
2023-03-02T03:05:20.604Z,102663.84
2023-03-02T03:07:47.270Z,102661.63
2023-03-02T03:10:39.829Z,102670.81
2023-03-02T03:13:09.218Z,102667.41
2023-03-02T03:15:36.337Z,102675.03
2023-03-02T03:18:02.864Z,102667.28
2023-03-02T03:20:29.856Z,102660.81
2023-03-02T03:22:59.294Z,102663.28
2023-03-02T03:25:26.578Z,102660.44
2023-03-02T03:27:53.109Z,102661.28
2023-03-02T03:30:19.748Z,102658.69
2023-03-02T03:32:46.349Z,102661.50
2023-03-02T03:35:13.157Z,102656.44
2023-03-02T03:37:41.237Z,102654.22
2023-03-02T03:40:09.900Z,102652.75
2023-03-02T03:42:38.063Z,102655.19
2023-03-02T03:45:05.967Z,102646.63
2023-03-02T03:47:32.449Z,102652.75
2023-03-02T03:49:58.927Z,102653.94
2023-03-02T03:52:31.420Z,102659.81
2023-03-02T03:54:59.915Z,102660.06
2023-03-02T03:57:27.825Z,102657.94
2023-03-02T03:59:54.690Z,102655.25
2023-03-02T04:02:21.984Z,102667.81
2023-03-02T04:04:48.598Z,102670.88
2023-03-02T04:07:15.211Z,102669.09
2023-03-02T04:09:41.805Z,102672.53
2023-03-02T04:12:09.604Z,102671.06
2023-03-02T04:14:36.306Z,102659.25
2023-03-02T04:17:05.412Z,102665.13
2023-03-02T04:19:32.471Z,102656.34
2023-03-02T04:21:59.593Z,102658.47
2023-03-02T04:24:26.123Z,102655.56
2023-03-02T04:26:52.783Z,102660.34
2023-03-02T04:29:19.762Z,102664.75
2023-03-02T04:31:46.511Z,102655.75
2023-03-02T04:34:13.155Z,102663.28
2023-03-02T04:36:40.318Z,102661.88
2023-03-02T04:39:08.433Z,102672.25
2023-03-02T04:41:35.568Z,102660.56
2023-03-02T04:44:02.362Z,102662.59
2023-03-02T04:46:29.152Z,102663.78
2023-03-02T04:48:55.761Z,102671.34
2023-03-02T04:51:25.989Z,102667.84
2023-03-02T04:53:54.925Z,102667.72
2023-03-02T04:56:22.045Z,102663.97
2023-03-02T04:58:48.565Z,102669.50
2023-03-02T05:01:16.668Z,102674.69
2023-03-02T05:03:43.208Z,102667.16
2023-03-02T05:06:10.596Z,102661.03
2023-03-02T05:08:37.581Z,102658.00
2023-03-02T05:11:04.952Z,102655.56
2023-03-02T05:13:31.400Z,102651.19
2023-03-02T05:15:58.499Z,102664.56
2023-03-02T05:18:25.654Z,102661.09
2023-03-02T05:20:53.652Z,102654.38
2023-03-02T05:23:25.713Z,102654.75
2023-03-02T05:25:54.672Z,102650.63
2023-03-02T05:28:23.226Z,102652.16
2023-03-02T05:30:50.010Z,102652.03
2023-03-02T05:33:17.110Z,102656.97
2023-03-02T05:35:44.394Z,102660.50
2023-03-02T05:38:11.800Z,102657.09
2023-03-02T05:40:39.183Z,102651.69
2023-03-02T05:43:06.437Z,102657.56
2023-03-02T05:45:36.178Z,102651.44
2023-03-02T05:48:03.553Z,102648.38
2023-03-02T05:50:30.420Z,102646.97
2023-03-02T05:52:58.219Z,102654.75
2023-03-02T05:55:24.814Z,102642.03
2023-03-02T05:57:51.275Z,102643.09
2023-03-02T06:00:18.687Z,102657.34
2023-03-02T06:02:45.236Z,102656.16
2023-03-02T06:05:15.228Z,102673.47
2023-03-02T06:07:41.896Z,102671.69
2023-03-02T06:10:10.155Z,102664.28
2023-03-02T06:12:36.938Z,102668.88
2023-03-02T06:15:05.517Z,102672.41
2023-03-02T06:17:32.321Z,102674.97
2023-03-02T06:19:58.777Z,102678.50
2023-03-02T06:22:25.420Z,102677.56
2023-03-02T06:24:51.971Z,102681.09
2023-03-02T06:27:18.700Z,102680.97
2023-03-02T06:29:45.219Z,102678.75
2023-03-02T06:32:11.848Z,102678.75
2023-03-02T06:34:38.423Z,102687.56
2023-03-02T06:37:04.914Z,102683.22
2023-03-02T06:39:31.516Z,102685.09
2023-03-02T06:41:59.264Z,102691.34
2023-03-02T06:44:25.764Z,102687.09
2023-03-02T06:46:52.249Z,102692.28
2023-03-02T06:53:09.578Z,102699.69
2023-03-02T06:55:36.111Z,102695.44
2023-03-02T06:58:02.532Z,102700.16
2023-03-02T07:00:29.203Z,102695.56
2023-03-02T07:02:56.551Z,102699.41
2023-03-02T07:05:24.451Z,102704.88
2023-03-02T07:07:51.020Z,102708.59
2023-03-02T07:10:17.738Z,102697.06
2023-03-02T07:12:44.466Z,102696.56
2023-03-02T07:15:12.306Z,102711.06
2023-03-02T07:17:39.769Z,102702.09
2023-03-02T07:20:07.058Z,102705.97
2023-03-02T07:22:33.787Z,102699.50
2023-03-02T07:25:01.624Z,102704.16
2023-03-02T07:28:26.531Z,102698.63
2023-03-02T07:30:54.072Z,102694.59
2023-03-02T07:33:21.395Z,102699.28
2023-03-02T07:35:48.530Z,102695.50
2023-03-02T07:38:15.123Z,102692.66
2023-03-02T07:41:25.194Z,102691.88
2023-03-02T07:43:51.693Z,102691.63
2023-03-02T07:46:18.224Z,102683.38
2023-03-02T07:48:44.756Z,102678.75
2023-03-02T07:51:11.215Z,102688.50
2023-03-02T07:53:38.488Z,102695.91
2023-03-02T07:56:10.212Z,102682.56
2023-03-02T07:58:37.571Z,102689.81
2023-03-02T08:01:04.690Z,102681.66
2023-03-02T08:03:31.305Z,102683.59
2023-03-02T08:05:57.931Z,102686.66
2023-03-02T08:08:24.548Z,102685.19
2023-03-02T08:10:51.163Z,102682.91
2023-03-02T08:13:17.929Z,102680.84
2023-03-02T08:15:44.487Z,102683.63
2023-03-02T08:18:11.005Z,102681.47
2023-03-02T08:20:38.156Z,102687.25
2023-03-02T08:23:04.601Z,102677.97
2023-03-02T08:25:31.155Z,102685.53
2023-03-02T08:27:57.653Z,102679.69
2023-03-02T08:30:24.152Z,102679.16
2023-03-02T08:32:50.787Z,102684.91
2023-03-02T08:35:17.464Z,102678.31
2023-03-02T08:37:43.993Z,102683.53
2023-03-02T08:40:11.183Z,102680.53
2023-03-02T08:42:37.700Z,102676.72
2023-03-02T08:45:04.636Z,102687.66
2023-03-02T08:47:32.585Z,102684.78
2023-03-02T08:49:59.247Z,102679.44
2023-03-02T08:52:25.748Z,102689.16
2023-03-02T08:54:52.304Z,102682.47
2023-03-02T08:57:20.404Z,102676.16
2023-03-02T08:59:47.833Z,102683.56
2023-03-02T09:02:14.302Z,102681.63
2023-03-02T09:04:40.903Z,102682.56
2023-03-02T09:07:07.493Z,102671.22
2023-03-02T09:09:34.079Z,102676.81
2023-03-02T09:12:00.684Z,102680.22
2023-03-02T09:14:27.430Z,102677.34
2023-03-02T09:16:54.452Z,102674.19
2023-03-02T09:19:21.248Z,102673.19
2023-03-02T09:21:47.759Z,102674.69
2023-03-02T09:24:14.235Z,102678.09
2023-03-02T09:26:40.882Z,102686.31
2023-03-02T09:29:07.527Z,102684.66
2023-03-02T09:31:36.494Z,102690.56
2023-03-02T09:34:04.475Z,102673.94
2023-03-02T09:36:32.782Z,102679.66
2023-03-02T09:38:59.541Z,102678.66
2023-03-02T09:41:40.085Z,102677.28
2023-03-02T09:44:16.949Z,102685.72
2023-03-02T09:46:53.962Z,102684.28
2023-03-02T09:49:54.582Z,102672.47
2023-03-02T09:52:30.357Z,102674.66
2023-03-02T09:55:02.305Z,102678.84
2023-03-02T09:57:33.851Z,102684.16
2023-03-02T10:00:19.521Z,102671.94
2023-03-02T10:02:51.169Z,102673.22
2023-03-02T10:05:22.821Z,102677.31
2023-03-02T10:07:49.785Z,102672.09
2023-03-02T10:10:24.870Z,102678.25
2023-03-02T10:13:00.568Z,102682.78
2023-03-02T10:15:38.234Z,102681.69
2023-03-02T10:18:13.890Z,102686.94
2023-03-02T10:21:03.587Z,102672.16
2023-03-02T10:23:33.061Z,102678.31
2023-03-02T10:26:19.603Z,102662.34
2023-03-02T10:28:56.870Z,102666.59
2023-03-02T10:31:27.996Z,102668.34
2023-03-02T10:33:55.395Z,102673.16
2023-03-02T10:36:27.792Z,102661.41
2023-03-02T10:38:55.627Z,102656.38
2023-03-02T10:41:36.391Z,102656.41
2023-03-02T10:44:07.842Z,102658.72
2023-03-02T10:46:42.829Z,102655.63
2023-03-02T10:49:24.991Z,102661.22
2023-03-02T10:52:06.087Z,102662.72
2023-03-02T10:54:34.494Z,102649.94
2023-03-02T10:57:03.839Z,102645.22
2023-03-02T10:59:43.575Z,102641.78
2023-03-02T11:02:25.100Z,102638.66
2023-03-02T11:05:10.772Z,102642.09
2023-03-02T11:07:37.248Z,102635.06
2023-03-02T11:10:19.101Z,102629.34
2023-03-02T11:12:50.801Z,102627.69
2023-03-02T11:15:25.546Z,102627.16
2023-03-02T11:18:03.251Z,102616.66
2023-03-02T11:20:34.939Z,102620.56
2023-03-02T11:23:24.029Z,102615.13
2023-03-02T11:30:25.909Z,102615.34
2023-03-02T11:33:02.285Z,102613.56
2023-03-02T11:35:37.779Z,102599.97
2023-03-02T11:38:16.459Z,102604.41
2023-03-02T11:41:12.359Z,102599.47
2023-03-02T11:43:39.016Z,102594.69
2023-03-02T11:46:13.835Z,102587.94
2023-03-02T11:48:48.868Z,102598.69
2023-03-02T11:51:26.440Z,102586.81
2023-03-02T11:53:59.271Z,102586.81
2023-03-02T11:56:31.263Z,102591.72
2023-03-02T11:59:04.719Z,102583.03
2023-03-02T12:01:35.011Z,102578.66
2023-03-02T12:04:10.915Z,102578.47
2023-03-02T12:06:40.946Z,102572.88
2023-03-02T12:09:31.340Z,102567.19
2023-03-02T12:12:32.812Z,102585.84
2023-03-02T12:14:59.858Z,102562.75
2023-03-02T12:17:26.347Z,102567.63
2023-03-02T12:20:07.721Z,102556.72
2023-03-02T12:22:35.078Z,102554.25
2023-03-02T12:25:26.497Z,102558.91
2023-03-02T12:27:54.929Z,102547.34
2023-03-02T12:30:28.099Z,102559.25
2023-03-02T12:33:11.559Z,102550.09
2023-03-02T12:35:38.574Z,102547.75
2023-03-02T12:38:26.756Z,102540.41
2023-03-02T12:40:56.308Z,102535.75
2023-03-02T12:43:28.176Z,102533.13
2023-03-02T12:46:26.064Z,102538.94
2023-03-02T12:49:11.571Z,102529.50
2023-03-02T12:51:50.659Z,102539.69
2023-03-02T12:54:19.575Z,102531.63
2023-03-02T12:56:47.133Z,102535.31
2023-03-02T12:59:25.780Z,102530.69
2023-03-02T13:01:52.514Z,102522.25
2023-03-02T13:04:25.039Z,102528.97
2023-03-02T13:06:53.683Z,102524.59
2023-03-02T13:09:21.665Z,102520.84
2023-03-02T13:11:49.701Z,102507.69
2023-03-02T13:14:24.531Z,102508.94
2023-03-02T13:17:05.282Z,102504.13
2023-03-02T13:19:33.044Z,102495.13
2023-03-02T13:22:00.541Z,102493.88
2023-03-02T13:24:34.659Z,102491.66
2023-03-02T13:27:06.965Z,102492.53
2023-03-02T13:29:33.900Z,102495.94
2023-03-02T13:32:24.302Z,102495.25
2023-03-02T13:35:02.457Z,102489.88
2023-03-02T13:37:38.828Z,102494.44
2023-03-02T13:40:30.796Z,102497.69
2023-03-02T13:42:58.077Z,102501.25
2023-03-02T13:45:26.084Z,102492.41
2023-03-02T13:47:54.495Z,102488.16
2023-03-02T13:50:25.778Z,102496.56
2023-03-02T13:52:55.332Z,102501.56
2023-03-02T13:55:22.343Z,102487.91
2023-03-02T13:57:51.055Z,102495.53
2023-03-02T14:00:36.332Z,102500.28
2023-03-02T14:03:02.853Z,102494.66
2023-03-02T14:05:35.540Z,102486.84
2023-03-02T14:08:07.219Z,102493.91
2023-03-02T14:10:33.711Z,102489.03
2023-03-02T14:13:06.118Z,102484.59
2023-03-02T14:15:32.780Z,102494.28
2023-03-02T14:18:00.444Z,102476.88
2023-03-02T14:20:26.969Z,102485.84
2023-03-02T14:22:53.451Z,102470.13
2023-03-02T14:25:20.611Z,102464.75
2023-03-02T14:27:47.496Z,102468.00
2023-03-02T14:30:20.466Z,102474.50
2023-03-02T14:32:47.244Z,102471.06
2023-03-02T14:35:16.580Z,102462.66
2023-03-02T14:37:46.884Z,102465.84
2023-03-02T14:40:28.406Z,102471.50
2023-03-02T14:42:55.069Z,102476.13
2023-03-02T14:45:22.006Z,102457.22
2023-03-02T14:47:48.983Z,102455.56
2023-03-02T14:50:16.921Z,102459.34
2023-03-02T14:52:48.080Z,102457.53
2023-03-02T14:55:23.710Z,102455.53
2023-03-02T14:57:58.403Z,102462.28
2023-03-02T15:00:25.868Z,102447.50
2023-03-02T15:02:52.549Z,102448.50
2023-03-02T15:05:19.648Z,102450.50
2023-03-02T15:07:46.651Z,102444.50
2023-03-02T15:10:19.860Z,102444.69
2023-03-02T15:12:46.714Z,102449.94
2023-03-02T15:15:13.634Z,102447.31
2023-03-02T15:17:40.896Z,102452.50
2023-03-02T15:20:10.012Z,102432.84
2023-03-02T15:22:36.492Z,102442.09
2023-03-02T15:25:03.048Z,102455.50
2023-03-02T15:27:29.608Z,102445.16
2023-03-02T15:29:57.020Z,102440.69
2023-03-02T15:32:26.664Z,102440.41
2023-03-02T15:34:56.000Z,102443.41
2023-03-02T15:37:22.669Z,102445.97
2023-03-02T15:39:54.272Z,102444.88
2023-03-02T15:42:20.778Z,102449.50
2023-03-02T15:44:47.408Z,102435.53
2023-03-02T15:47:13.962Z,102436.53
2023-03-02T15:49:40.601Z,102432.28
2023-03-02T15:52:07.156Z,102430.66
2023-03-02T15:54:33.663Z,102436.47
2023-03-02T15:57:00.144Z,102437.22
2023-03-02T15:59:28.816Z,102431.50
2023-03-02T16:01:59.939Z,102445.81
2023-03-02T16:04:27.770Z,102446.34
2023-03-02T16:06:55.073Z,102448.72
2023-03-02T16:09:22.336Z,102450.88
2023-03-02T16:11:49.771Z,102461.09
2023-03-02T16:14:16.377Z,102455.56
2023-03-02T16:16:43.711Z,102446.63
2023-03-02T16:19:17.725Z,102457.66
2023-03-02T16:21:45.666Z,102457.38
2023-03-02T16:24:13.099Z,102450.22
2023-03-02T16:26:39.642Z,102460.78
2023-03-02T16:29:08.120Z,102460.50
2023-03-02T16:32:10.005Z,102464.69
2023-03-02T16:35:33.219Z,102479.66
2023-03-02T16:38:00.435Z,102471.22
2023-03-02T16:40:27.728Z,102469.47
2023-03-02T16:42:54.557Z,102476.22
2023-03-02T16:45:52.491Z,102481.56
2023-03-02T16:48:37.284Z,102475.38
2023-03-02T16:51:04.882Z,102481.31
2023-03-02T16:53:31.453Z,102490.84
2023-03-02T16:55:57.929Z,102483.19
2023-03-02T16:58:25.035Z,102497.63
2023-03-02T17:00:51.655Z,102497.13
2023-03-02T17:03:20.431Z,102502.25
2023-03-02T17:05:46.978Z,102505.72
2023-03-02T17:08:14.823Z,102505.56
2023-03-02T17:10:42.312Z,102507.41
2023-03-02T17:13:09.726Z,102516.44
2023-03-02T17:15:36.295Z,102516.94
2023-03-02T17:18:02.879Z,102510.41
2023-03-02T17:20:29.416Z,102523.50
2023-03-02T17:22:55.889Z,102519.97
2023-03-02T17:25:22.932Z,102528.63
2023-03-02T17:27:49.460Z,102528.81
2023-03-02T17:30:16.468Z,102524.38
2023-03-02T17:32:43.162Z,102536.31
2023-03-02T17:35:12.134Z,102539.59
2023-03-02T17:37:38.661Z,102534.72
2023-03-02T17:40:06.665Z,102538.97
2023-03-02T17:42:33.249Z,102542.22
2023-03-02T17:45:00.021Z,102546.13
2023-03-02T17:47:26.672Z,102547.13
2023-03-02T17:49:53.215Z,102546.78
2023-03-02T17:52:19.935Z,102544.81
2023-03-02T17:54:46.509Z,102551.38
2023-03-02T17:57:13.186Z,102560.22
2023-03-02T17:59:39.672Z,102568.34
2023-03-02T18:02:06.122Z,102563.78
2023-03-02T18:04:32.671Z,102568.00
2023-03-02T18:06:59.170Z,102576.63
2023-03-02T18:09:25.701Z,102582.03
2023-03-02T18:11:52.257Z,102588.88
2023-03-02T18:14:20.424Z,102591.66
2023-03-02T18:16:47.254Z,102591.94
2023-03-02T18:19:13.844Z,102587.53
2023-03-02T18:21:42.057Z,102595.84
2023-03-02T18:24:09.481Z,102598.91
2023-03-02T18:26:36.357Z,102605.06
2023-03-02T18:33:11.023Z,102602.44
2023-03-02T18:35:38.284Z,102618.09
2023-03-02T18:38:05.078Z,102611.56
2023-03-02T18:40:31.642Z,102611.88
2023-03-02T18:42:58.350Z,102611.50
2023-03-02T18:45:28.570Z,102618.00
2023-03-02T18:47:55.858Z,102615.03
2023-03-02T18:50:23.229Z,102617.28
2023-03-02T18:52:52.852Z,102625.91
2023-03-02T18:55:24.414Z,102620.69
2023-03-02T18:57:53.798Z,102628.00
2023-03-02T19:00:26.681Z,102616.91
2023-03-02T19:02:56.816Z,102617.81
2023-03-02T19:05:25.186Z,102624.91
2023-03-02T19:07:51.725Z,102624.28
2023-03-02T19:10:20.577Z,102620.56
2023-03-02T19:12:48.048Z,102626.53
2023-03-02T19:15:14.587Z,102622.28
2023-03-02T19:17:45.872Z,102618.97
2023-03-02T19:20:16.832Z,102624.94
2023-03-02T19:22:43.355Z,102638.13
2023-03-02T19:25:10.587Z,102638.28
2023-03-02T19:27:37.747Z,102638.13
2023-03-02T19:30:06.354Z,102628.00
2023-03-02T19:32:33.188Z,102634.31
2023-03-02T19:35:01.217Z,102632.44
2023-03-02T19:37:27.693Z,102638.25
2023-03-02T19:39:54.347Z,102638.19
2023-03-02T19:42:20.871Z,102636.19
2023-03-02T19:44:47.408Z,102640.03
2023-03-02T19:47:13.976Z,102651.06
2023-03-02T19:49:40.560Z,102646.13
2023-03-02T19:52:07.026Z,102652.47
2023-03-02T19:54:33.547Z,102640.25
2023-03-02T19:57:00.160Z,102654.63
2023-03-02T19:59:27.354Z,102650.75
2023-03-02T20:01:55.425Z,102651.06
2023-03-02T20:04:22.059Z,102656.56
2023-03-02T20:06:48.584Z,102646.72
2023-03-02T20:09:19.653Z,102650.22
2023-03-02T20:11:47.401Z,102645.72
2023-03-02T20:14:27.588Z,102653.41
2023-03-02T20:16:59.632Z,102645.19
2023-03-02T20:19:26.123Z,102646.88
2023-03-02T20:21:52.564Z,102649.34
2023-03-02T20:24:19.120Z,102650.69
2023-03-02T20:26:45.865Z,102648.50
2023-03-02T20:29:12.639Z,102658.41
2023-03-02T20:31:39.749Z,102657.34
2023-03-02T20:34:10.980Z,102652.72
2023-03-02T20:36:38.048Z,102652.94
2023-03-02T20:39:10.402Z,102656.75
2023-03-02T20:41:37.015Z,102659.06
2023-03-02T20:44:05.418Z,102657.44
2023-03-02T20:46:36.112Z,102657.28
2023-03-02T20:49:04.564Z,102653.03
2023-03-02T20:51:31.279Z,102655.13
2023-03-02T20:53:58.565Z,102647.22
2023-03-02T20:56:25.570Z,102656.81
2023-03-02T20:58:52.097Z,102651.06
2023-03-02T21:01:19.829Z,102651.66
2023-03-02T21:03:46.797Z,102663.03
2023-03-02T21:06:15.255Z,102660.69
2023-03-02T21:08:42.845Z,102661.13
2023-03-02T21:11:12.739Z,102667.00
2023-03-02T21:13:39.388Z,102660.59
2023-03-02T21:16:08.557Z,102668.38
2023-03-02T21:18:35.481Z,102664.69
2023-03-02T21:21:03.132Z,102669.63
2023-03-02T21:23:30.152Z,102676.63
2023-03-02T21:25:57.201Z,102676.06
2023-03-02T21:28:23.769Z,102677.44
2023-03-02T21:30:50.579Z,102682.91
2023-03-02T21:33:17.123Z,102682.00
2023-03-02T21:35:46.331Z,102674.75
2023-03-02T21:38:13.160Z,102666.25
2023-03-02T21:40:43.092Z,102672.69
2023-03-02T21:43:09.735Z,102665.44
2023-03-02T21:45:37.367Z,102659.00
2023-03-02T21:48:05.198Z,102659.97
2023-03-02T21:50:35.662Z,102661.47
2023-03-02T21:53:02.386Z,102659.28
2023-03-02T21:55:30.285Z,102658.88
2023-03-02T21:57:57.569Z,102659.16
2023-03-02T22:00:30.742Z,102651.38
2023-03-02T22:02:57.176Z,102660.53
2023-03-02T22:05:23.694Z,102667.78
2023-03-02T22:07:50.414Z,102668.09
2023-03-02T22:10:42.554Z,102668.09
2023-03-02T22:13:15.346Z,102666.59
2023-03-02T22:15:41.869Z,102664.13
2023-03-02T22:18:17.058Z,102659.34
2023-03-02T22:20:46.086Z,102677.94
2023-03-02T22:23:21.420Z,102666.31
2023-03-02T22:25:53.675Z,102676.72
2023-03-02T22:28:23.387Z,102685.34
2023-03-02T22:30:51.544Z,102684.38
2023-03-02T22:33:23.783Z,102692.31
2023-03-02T22:35:53.140Z,102683.28
2023-03-02T22:38:27.938Z,102677.53
2023-03-02T22:40:55.431Z,102680.81
2023-03-02T22:43:33.112Z,102677.13
2023-03-02T22:46:10.711Z,102672.59
2023-03-02T22:48:38.203Z,102674.00
2023-03-02T22:51:15.378Z,102677.81
2023-03-02T22:53:53.169Z,102675.34
2023-03-02T22:56:34.152Z,102678.50
2023-03-02T22:59:16.956Z,102667.53
2023-03-02T23:01:45.012Z,102670.69
2023-03-02T23:04:17.646Z,102683.25
2023-03-02T23:06:47.723Z,102674.75
2023-03-02T23:09:18.232Z,102693.78
2023-03-02T23:11:45.004Z,102686.25
2023-03-02T23:14:21.153Z,102690.09
2023-03-02T23:16:56.948Z,102684.34
2023-03-02T23:19:25.660Z,102679.69
2023-03-02T23:21:52.111Z,102682.09
2023-03-02T23:24:20.731Z,102683.31
2023-03-02T23:26:49.407Z,102682.63
2023-03-02T23:29:16.746Z,102684.28
2023-03-02T23:31:43.865Z,102679.47
2023-03-02T23:34:11.384Z,102677.97
2023-03-02T23:36:38.129Z,102676.31
2023-03-02T23:39:05.676Z,102672.06
2023-03-02T23:41:32.322Z,102682.06
2023-03-02T23:43:59.008Z,102673.97
2023-03-02T23:46:25.814Z,102677.34
2023-03-02T23:48:53.102Z,102670.63
2023-03-02T23:51:19.779Z,102675.56
2023-03-02T23:53:47.148Z,102678.16
2023-03-02T23:56:13.651Z,102678.44
2023-03-02T23:58:40.519Z,102679.63
